Airfield :
LOGIN :

Register | Disclaimer

   EN    FR    IT 

 










Legend :    VFR   Marginal VFR   IFR   Intensive IFR   Very Intensive IFR
Visi :
Ceiling :
>= 8 km
>= 3000ft
5 to 8 km
1000 to 3000 ft
1500m to 5 km
500 to 1000 ft
800 to 1500m
200 to 500 ft
< 800m
< 200 ft
Symbols :   Thunderstorms  Fog  Heavy snow  Heavy precipitations  Wind > 20 kt
SIGMETs :     Misc.  Thunderstorms  Icing  Turbulence  Mountain Waves  Volcanic Ashes






- Airport Elevation : 1079 ft


ETIK - Illesheim Air Base

CURRENT METAR :
  • 071556Z AUTO 29014KT 9999 FEW035 SCT050 09/02 A3005 RMK AO2 DZB20E31 SLP185 P0000 T00880017 $

EXPIRED METARs :
  • 071531Z AUTO 27012KT 9999 FEW020 SCT028 BKN042 BKN050 08/04 A3004 RMK AO2 DZB20E31 SLP182 $
  • 071520Z AUTO 28017G23KT 9999 -DZ SCT028 SCT042 08/03 A3004 RMK AO2 DZB20 SLP182 $
  • 071456Z AUTO 24012KT 9999 SCT026 SCT075 08/04 A3003 RMK AO2 DZB20E32RAB32E47 SLP178 P0000 60000 T00790036 51029 $
  • 071447Z AUTO 25010KT 9999 SCT029 SCT035 SCT045 BKN060 OVC075 07/04 A3003 RMK AO2 DZB20E32RAB32E47 SLP180 $
  • 071420Z AUTO 28009KT 9999 -DZ FEW029 SCT046 BKN055 BKN085 08/02 A3002 RMK AO2 DZB20 SLP175 $
  • 071356Z AUTO 26013G18KT 9999 FEW039 FEW055 08/04 A3002 RMK AO2 RAB06E16DZB16E28 SLP175 P0000 T00810037 $

TAF TAF ETIK
Valid from the 07 at 14:00 until the 08 at 20:00 UTC


071459Z 0714/0820 27010G15KT 9999 SCT030 BKN050 QNH2997INS
TEMPO 0714/0717 VRB25G35KT 8000 TSRA BKN030CB
BECMG 0718/0719 VRB06KT 9999 SCT040 QNH3003INS TX13/0812Z TN01/0803Z LAST NO AMDS AFT 0715 NEXT 1004



MET'MAP, your aeronautical weather chart ! - Copyright ORBIFLY December 2007 - Disclaimer

ORBIFLY MET'MAP TEAM :

Programming & Development : Alexandra Zaïnal
Concept & original design : Baudouin d'Aumeries
Assistance for programming : Marc-Olivier Méhu
Technical & hardware support : Manuel Goepfert

Contact : metmap@orbifly.com




SOURCES & CREDITS :

   NOAA